Crouse, NC

5:04 PM EDT on July 30, 2015 (GMT -0400)
Crouse | | Change Station
CLOSE
Current Station
Personal Weather Station
Location: Crouse, NC
Elevation: 951 ft
Nearby Weather Stations

Elev 951 ft 35.40 °N, 81.34 °W | Updated 9 minutes ago

Clear
Clear
93.7 °F
Feels Like 103 °F
N
0.0
Wind Variable Wind from NNE

Today
High -- | Low -- °F
--% Chance of Precip.
Yesterday
High -- | Low -- °F
Precip. -- in
6:32 AM 8:30 PM
Full, 100% visible
Pressure 29.90 in
Visibility 10.0 miles
Clouds Scattered Clouds 5000 ft
Heat Index 103 °F
Dew Point 73 °F
Humidity 51%
Rainfall 0.00 in
Snow Depth Not available.
UV 5 out of 12
Pollen 4.40 out of 12
Air Quality Not available.
Flu Activity Not available.
METAR KIPJ 302055Z AUTO 29003KT 10SM SCT050 35/19 A2990 RMK AO2 T03500191

More Conditions Fewer Conditions

Pressure 29.90 in
Visibility 10.0 miles
Clouds Scattered Clouds 5000 ft
Heat Index 103 °F
Dew Point 73 °F
Humidity 51%
Rainfall 0.00 in
Snow Depth Not available.
UV 5 out of 12
Pollen 4.40 out of 12
Air Quality Not available.
Flu Activity Not available.
METAR KIPJ 302055Z AUTO 29003KT 10SM SCT050 35/19 A2990 RMK AO2 T03500191

More Conditions Fewer Conditions

10-Day Weather Forecast

×

Almanac

Astronomy

Jul. 30, 2015 Rise Set
Actual Time
Civil Twilight
Nautical Twilight
Astronomical Twilight
Moon
Length of Visible Light
Length of Day
Tomorrow will be .
, % of the Moon is Illuminated

Today's Extremes

State Highs State Lows

Community

WunderPhotos

Upload Photos

1,842,500 photos uploaded!

WunderBlogs® & News

Nearby

Air Quality

  Air Quality AQ Index Pollutant
Not available.

Snow Depth

Station Depth Elevation

Earthquake Activity

City Distance Mag. Time & Date
Minimum magnitude displayed is 2.5.

Coastal Water Temperatures

Place Temperature

Stations

Nearby Weather Stations

Station Location Temp. Windchill Dew Point Humidity Wind Precip. Elev Updated Type